sensor_id;sensor_type;location;lat;lon;timestamp;pressure;altitude;pressure_sealevel;temperature;humidity
50093;BME280;35974;47.752;10.290;2023-11-22T00:00:11;93890.34;;;4.52;100.00
50093;BME280;35974;47.752;10.290;2023-11-22T00:02:40;93901.66;;;4.59;100.00
50093;BME280;35974;47.752;10.290;2023-11-22T00:05:07;93892.22;;;4.74;100.00
50093;BME280;35974;47.752;10.290;2023-11-22T00:10:54;93885.72;;;4.79;100.00
50093;BME280;35974;47.752;10.290;2023-11-22T00:13:21;93896.75;;;4.72;100.00
50093;BME280;35974;47.752;10.290;2023-11-22T00:15:47;93895.81;;;4.65;100.00
50093;BME280;35974;47.752;10.290;2023-11-22T00:18:15;93892.59;;;4.63;100.00
50093;BME280;35974;47.752;10.290;2023-11-22T00:20:42;93891.91;;;4.61;100.00
50093;BME280;35974;47.752;10.290;2023-11-22T00:23:08;93880.13;;;4.58;100.00
50093;BME280;35974;47.752;10.290;2023-11-22T00:25:35;93880.91;;;4.59;100.00
50093;BME280;35974;47.752;10.290;2023-11-22T00:28:02;93887.06;;;4.58;100.00
50093;BME280;35974;47.752;10.290;2023-11-22T00:30:28;93894.22;;;4.56;100.00
50093;BME280;35974;47.752;10.290;2023-11-22T00:32:55;93898.09;;;4.60;100.00
50093;BME280;35974;47.752;10.290;2023-11-22T00:35:22;93894.19;;;4.64;100.00
50093;BME280;35974;47.752;10.290;2023-11-22T00:37:49;93895.81;;;4.65;100.00
50093;BME280;35974;47.752;10.290;2023-11-22T00:40:16;93894.34;;;4.63;100.00
50093;BME280;35974;47.752;10.290;2023-11-22T00:42:42;93881.59;;;4.53;100.00
50093;BME280;35974;47.752;10.290;2023-11-22T00:45:09;93898.09;;;4.60;100.00
50093;BME280;35974;47.752;10.290;2023-11-22T00:47:36;93898.72;;;4.62;100.00
50093;BME280;35974;47.752;10.290;2023-11-22T00:50:03;93905.84;;;4.68;100.00
50093;BME280;35974;47.752;10.290;2023-11-22T00:52:30;93902.22;;;4.77;100.00
50093;BME280;35974;47.752;10.290;2023-11-22T00:54:57;93904.81;;;4.77;100.00
50093;BME280;35974;47.752;10.290;2023-11-22T00:57:23;93894.47;;;4.77;100.00
50093;BME280;35974;47.752;10.290;2023-11-22T00:59:50;93898.50;;;4.80;100.00
50093;BME280;35974;47.752;10.290;2023-11-22T01:02:16;93892.16;;;4.91;100.00
50093;BME280;35974;47.752;10.290;2023-11-22T01:04:42;93898.91;;;5.00;100.00
50093;BME280;35974;47.752;10.290;2023-11-22T01:07:09;93904.13;;;4.92;100.00
50093;BME280;35974;47.752;10.290;2023-11-22T01:09:35;93910.31;;;4.91;100.00
50093;BME280;35974;47.752;10.290;2023-11-22T01:12:02;93901.75;;;4.82;100.00
50093;BME280;35974;47.752;10.290;2023-11-22T01:14:28;93907.06;;;4.89;100.00
50093;BME280;35974;47.752;10.290;2023-11-22T01:16:55;93906.75;;;4.84;100.00
50093;BME280;35974;47.752;10.290;2023-11-22T01:19:22;93909.34;;;4.84;100.00
50093;BME280;35974;47.752;10.290;2023-11-22T01:21:48;93900.28;;;4.88;100.00
50093;BME280;35974;47.752;10.290;2023-11-22T01:24:15;93908.41;;;4.76;100.00
50093;BME280;35974;47.752;10.290;2023-11-22T01:26:41;93910.38;;;4.74;100.00
50093;BME280;35974;47.752;10.290;2023-11-22T01:29:08;93912.31;;;4.72;100.00
50093;BME280;35974;47.752;10.290;2023-11-22T01:31:34;93909.22;;;4.77;100.00
50093;BME280;35974;47.752;10.290;2023-11-22T01:34:00;93906.78;;;4.75;100.00
50093;BME280;35974;47.752;10.290;2023-11-22T01:36:28;93915.56;;;4.74;100.00
50093;BME280;35974;47.752;10.290;2023-11-22T01:38:54;93911.84;;;4.69;100.00
50093;BME280;35974;47.752;10.290;2023-11-22T01:41:22;93917.47;;;4.72;100.00
50093;BME280;35974;47.752;10.290;2023-11-22T01:43:48;93910.38;;;4.74;100.00
50093;BME280;35974;47.752;10.290;2023-11-22T01:46:24;93916.53;;;4.73;100.00
50093;BME280;35974;47.752;10.290;2023-11-22T01:48:52;93917.28;;;4.82;100.00
50093;BME280;35974;47.752;10.290;2023-11-22T01:51:20;93912.94;;;4.83;100.00
50093;BME280;35974;47.752;10.290;2023-11-22T01:53:47;93920.06;;;4.81;100.00
50093;BME280;35974;47.752;10.290;2023-11-22T01:56:15;93916.47;;;4.90;100.00
50093;BME280;35974;47.752;10.290;2023-11-22T01:58:43;93923.91;;;4.93;100.00
50093;BME280;35974;47.752;10.290;2023-11-22T02:01:10;93919.91;;;4.74;100.00
50093;BME280;35974;47.752;10.290;2023-11-22T02:03:38;93925.09;;;4.74;100.00
50093;BME280;35974;47.752;10.290;2023-11-22T02:06:05;93926.25;;;4.71;100.00
50093;BME280;35974;47.752;10.290;2023-11-22T02:08:32;93928.81;;;4.80;100.00
50093;BME280;35974;47.752;10.290;2023-11-22T02:10:59;93929.94;;;4.77;100.00
50093;BME280;35974;47.752;10.290;2023-11-22T02:13:28;93931.38;;;4.88;100.00
50093;BME280;35974;47.752;10.290;2023-11-22T02:15:55;93928.75;;;4.96;100.00
50093;BME280;35974;47.752;10.290;2023-11-22T02:18:23;93930.72;;;4.94;100.00
50093;BME280;35974;47.752;10.290;2023-11-22T02:20:49;93939.88;;;5.13;100.00
50093;BME280;35974;47.752;10.290;2023-11-22T02:25:49;93932.94;;;5.05;100.00
50093;BME280;35974;47.752;10.290;2023-11-22T02:28:16;93938.81;;;4.99;100.00
50093;BME280;35974;47.752;10.290;2023-11-22T02:30:42;93930.38;;;4.97;100.00
50093;BME280;35974;47.752;10.290;2023-11-22T02:33:09;93935.25;;;4.92;100.00
50093;BME280;35974;47.752;10.290;2023-11-22T02:35:35;93942.22;;;4.91;100.00
50093;BME280;35974;47.752;10.290;2023-11-22T02:38:02;93943.72;;;4.86;100.00
50093;BME280;35974;47.752;10.290;2023-11-22T02:40:28;93935.75;;;4.87;100.00
50093;BME280;35974;47.752;10.290;2023-11-22T02:42:55;93942.41;;;4.82;100.00
50093;BME280;35974;47.752;10.290;2023-11-22T02:45:26;93939.84;;;4.73;100.00
50093;BME280;35974;47.752;10.290;2023-11-22T02:47:52;93950.88;;;4.67;100.00
50093;BME280;35974;47.752;10.290;2023-11-22T02:50:19;93947.94;;;4.79;100.00
50093;BME280;35974;47.752;10.290;2023-11-22T02:52:45;93946.97;;;4.80;100.00
50093;BME280;35974;47.752;10.290;2023-11-22T02:55:12;93947.59;;;4.82;100.00
50093;BME280;35974;47.752;10.290;2023-11-22T02:57:38;93951.16;;;4.81;100.00
50093;BME280;35974;47.752;10.290;2023-11-22T03:00:08;93947.28;;;4.85;100.00
50093;BME280;35974;47.752;10.290;2023-11-22T03:02:35;93955.34;;;4.90;100.00
50093;BME280;35974;47.752;10.290;2023-11-22T03:05:01;93944.03;;;4.83;100.00
50093;BME280;35974;47.752;10.290;2023-11-22T03:07:28;93955.31;;;4.98;100.00
50093;BME280;35974;47.752;10.290;2023-11-22T03:09:54;93954.88;;;4.86;100.00
50093;BME280;35974;47.752;10.290;2023-11-22T03:12:21;93892.28;;;4.42;100.00
50093;BME280;35974;47.752;10.290;2023-11-22T03:14:52;93956.66;;;4.77;100.00
50093;BME280;35974;47.752;10.290;2023-11-22T03:17:24;93959.59;;;4.83;100.00
50093;BME280;35974;47.752;10.290;2023-11-22T03:19:51;93960.06;;;4.86;100.00
50093;BME280;35974;47.752;10.290;2023-11-22T03:22:18;93957.34;;;4.80;100.00
50093;BME280;35974;47.752;10.290;2023-11-22T03:24:44;93958.97;;;4.72;100.00
50093;BME280;35974;47.752;10.290;2023-11-22T03:27:10;93968.38;;;4.73;100.00
50093;BME280;35974;47.752;10.290;2023-11-22T03:29:37;93964.47;;;4.69;100.00
50093;BME280;35974;47.752;10.290;2023-11-22T03:32:04;93964.78;;;4.66;100.00
50093;BME280;35974;47.752;10.290;2023-11-22T03:34:30;93968.69;;;4.70;100.00
50093;BME280;35974;47.752;10.290;2023-11-22T03:36:57;93965.44;;;4.76;100.00
50093;BME280;35974;47.752;10.290;2023-11-22T03:39:24;93964.13;;;4.81;100.00
50093;BME280;35974;47.752;10.290;2023-11-22T03:41:51;93972.56;;;4.83;100.00
50093;BME280;35974;47.752;10.290;2023-11-22T03:44:17;93974.47;;;4.89;100.00
50093;BME280;35974;47.752;10.290;2023-11-22T03:46:43;93971.25;;;4.87;100.00
50093;BME280;35974;47.752;10.290;2023-11-22T03:49:10;93975.78;;;4.93;100.00
50093;BME280;35974;47.752;10.290;2023-11-22T03:51:38;93980.97;;;4.93;100.00
50093;BME280;35974;47.752;10.290;2023-11-22T03:54:04;93984.84;;;4.89;100.00
50093;BME280;35974;47.752;10.290;2023-11-22T03:56:31;93984.84;;;4.89;100.00
50093;BME280;35974;47.752;10.290;2023-11-22T03:58:59;93984.50;;;4.92;100.00
50093;BME280;35974;47.752;10.290;2023-11-22T04:01:25;93989.03;;;4.98;100.00
50093;BME280;35974;47.752;10.290;2023-11-22T04:03:52;93991.31;;;4.93;100.00
50093;BME280;35974;47.752;10.290;2023-11-22T04:06:20;94003.94;;;5.04;100.00
50093;BME280;35974;47.752;10.290;2023-11-22T04:08:46;94007.63;;;5.18;100.00
50093;BME280;35974;47.752;10.290;2023-11-22T04:11:13;94005.59;;;4.89;100.00
50093;BME280;35974;47.752;10.290;2023-11-22T04:13:40;94006.28;;;4.83;100.00
50093;BME280;35974;47.752;10.290;2023-11-22T04:16:07;94006.28;;;4.74;100.00
50093;BME280;35974;47.752;10.290;2023-11-22T04:18:35;94006.91;;;4.76;100.00
50093;BME280;35974;47.752;10.290;2023-11-22T04:21:04;94010.81;;;4.72;100.00
50093;BME280;35974;47.752;10.290;2023-11-22T04:23:31;94018.91;;;4.61;100.00
50093;BME280;35974;47.752;10.290;2023-11-22T04:26:01;94018.91;;;4.53;100.00
50093;BME280;35974;47.752;10.290;2023-11-22T04:28:28;94021.84;;;4.50;100.00
50093;BME280;35974;47.752;10.290;2023-11-22T04:30:56;94028.66;;;4.34;100.00
50093;BME280;35974;47.752;10.290;2023-11-22T04:33:23;94032.19;;;4.17;100.00
50093;BME280;35974;47.752;10.290;2023-11-22T04:35:50;94038.94;;;3.85;100.00
50093;BME280;35974;47.752;10.290;2023-11-22T04:38:17;94038.56;;;3.72;100.00
50093;BME280;35974;47.752;10.290;2023-11-22T04:40:44;94053.69;;;3.42;100.00
50093;BME280;35974;47.752;10.290;2023-11-22T04:43:10;94052.59;;;3.18;100.00
50093;BME280;35974;47.752;10.290;2023-11-22T04:45:37;94051.59;;;3.11;100.00
50093;BME280;35974;47.752;10.290;2023-11-22T04:48:04;94053.84;;;3.06;100.00
50093;BME280;35974;47.752;10.290;2023-11-22T04:50:30;94062.59;;;3.13;100.00
50093;BME280;35974;47.752;10.290;2023-11-22T04:52:57;94070.66;;;3.10;100.00
50093;BME280;35974;47.752;10.290;2023-11-22T04:55:23;94059.59;;;3.26;100.00
50093;BME280;35974;47.752;10.290;2023-11-22T04:57:50;94066.25;;;3.28;100.00
50093;BME280;35974;47.752;10.290;2023-11-22T05:00:16;94068.53;;;3.32;100.00
50093;BME280;35974;47.752;10.290;2023-11-22T05:02:43;94079.50;;;3.34;100.00
50093;BME280;35974;47.752;10.290;2023-11-22T05:05:10;94080.22;;;3.52;100.00
50093;BME280;35974;47.752;10.290;2023-11-22T05:07:41;94083.41;;;3.38;100.00
50093;BME280;35974;47.752;10.290;2023-11-22T05:10:07;94090.81;;;3.33;100.00
50093;BME280;35974;47.752;10.290;2023-11-22T05:12:37;94094.88;;;3.35;100.00
50093;BME280;35974;47.752;10.290;2023-11-22T05:15:04;94094.06;;;3.35;100.00
50093;BME280;35974;47.752;10.290;2023-11-22T05:17:30;94094.84;;;3.61;100.00
50093;BME280;35974;47.752;10.290;2023-11-22T05:19:57;94098.41;;;3.34;100.00
50093;BME280;35974;47.752;10.290;2023-11-22T05:22:23;94101.78;;;3.26;100.00
50093;BME280;35974;47.752;10.290;2023-11-22T05:24:49;94099.88;;;3.28;100.00
50093;BME280;35974;47.752;10.290;2023-11-22T05:27:16;94105.28;;;3.17;100.00
50093;BME280;35974;47.752;10.290;2023-11-22T05:29:43;94106.44;;;2.97;100.00
50093;BME280;35974;47.752;10.290;2023-11-22T05:32:20;94111.13;;;2.93;100.00
50093;BME280;35974;47.752;10.290;2023-11-22T05:34:46;94117.38;;;2.90;100.00
50093;BME280;35974;47.752;10.290;2023-11-22T05:37:13;94122.72;;;2.71;100.00
50093;BME280;35974;47.752;10.290;2023-11-22T05:39:39;94116.72;;;2.88;100.00
50093;BME280;35974;47.752;10.290;2023-11-22T05:42:05;94137.06;;;2.83;100.00
50093;BME280;35974;47.752;10.290;2023-11-22T05:44:33;94137.94;;;2.74;100.00
50093;BME280;35974;47.752;10.290;2023-11-22T05:46:59;94139.34;;;2.86;100.00
50093;BME280;35974;47.752;10.290;2023-11-22T05:49:26;94149.00;;;2.84;100.00
50093;BME280;35974;47.752;10.290;2023-11-22T05:51:52;94146.03;;;2.79;100.00
50093;BME280;35974;47.752;10.290;2023-11-22T05:54:19;94152.44;;;2.67;100.00
50093;BME280;35974;47.752;10.290;2023-11-22T05:56:45;94163.94;;;2.54;100.00
50093;BME280;35974;47.752;10.290;2023-11-22T05:59:11;94152.94;;;2.52;100.00
50093;BME280;35974;47.752;10.290;2023-11-22T06:01:38;94169.53;;;2.68;100.00
50093;BME280;35974;47.752;10.290;2023-11-22T06:04:05;94169.38;;;2.51;100.00
50093;BME280;35974;47.752;10.290;2023-11-22T06:06:31;94177.91;;;2.34;100.00
50093;BME280;35974;47.752;10.290;2023-11-22T06:08:58;94180.91;;;2.39;100.00
50093;BME280;35974;47.752;10.290;2023-11-22T06:11:24;94178.31;;;2.39;100.00
50093;BME280;35974;47.752;10.290;2023-11-22T06:13:51;94168.50;;;2.25;100.00
50093;BME280;35974;47.752;10.290;2023-11-22T06:16:18;94176.31;;;2.33;100.00
50093;BME280;35974;47.752;10.290;2023-11-22T06:18:44;94173.19;;;2.11;100.00
50093;BME280;35974;47.752;10.290;2023-11-22T06:21:11;94179.91;;;2.22;100.00
50093;BME280;35974;47.752;10.290;2023-11-22T06:23:39;94176.38;;;2.23;100.00
50093;BME280;35974;47.752;10.290;2023-11-22T06:26:06;94177.81;;;2.08;100.00
50093;BME280;35974;47.752;10.290;2023-11-22T06:28:34;94187.78;;;2.20;100.00
50093;BME280;35974;47.752;10.290;2023-11-22T06:31:01;94191.06;;;2.23;100.00
50093;BME280;35974;47.752;10.290;2023-11-22T06:33:27;94192.97;;;2.20;100.00
50093;BME280;35974;47.752;10.290;2023-11-22T06:35:54;94190.66;;;2.17;100.00
50093;BME280;35974;47.752;10.290;2023-11-22T06:38:20;94191.81;;;2.33;100.00
50093;BME280;35974;47.752;10.290;2023-11-22T06:40:47;94200.50;;;2.32;100.00
50093;BME280;35974;47.752;10.290;2023-11-22T06:43:13;94204.34;;;2.28;100.00
50093;BME280;35974;47.752;10.290;2023-11-22T06:45:39;94219.34;;;2.14;100.00
50093;BME280;35974;47.752;10.290;2023-11-22T06:48:07;94217.75;;;2.13;100.00
50093;BME280;35974;47.752;10.290;2023-11-22T06:50:35;94206.16;;;2.17;100.00
50093;BME280;35974;47.752;10.290;2023-11-22T06:53:01;94211.13;;;2.01;100.00
50093;BME280;35974;47.752;10.290;2023-11-22T06:55:29;94211.03;;;1.93;100.00
50093;BME280;35974;47.752;10.290;2023-11-22T06:58:00;94212.09;;;2.00;100.00
50093;BME280;35974;47.752;10.290;2023-11-22T07:00:26;94215.91;;;1.96;100.00
50093;BME280;35974;47.752;10.290;2023-11-22T07:02:54;94224.91;;;1.92;100.00
50093;BME280;35974;47.752;10.290;2023-11-22T07:05:20;94227.06;;;1.87;100.00
50093;BME280;35974;47.752;10.290;2023-11-22T07:07:47;94235.22;;;1.92;100.00
50093;BME280;35974;47.752;10.290;2023-11-22T07:10:15;94236.06;;;1.82;100.00
50093;BME280;35974;47.752;10.290;2023-11-22T07:12:43;94250.94;;;1.61;100.00
50093;BME280;35974;47.752;10.290;2023-11-22T07:15:09;94264.94;;;1.49;100.00
50093;BME280;35974;47.752;10.290;2023-11-22T07:17:36;94266.31;;;1.33;100.00
50093;BME280;35974;47.752;10.290;2023-11-22T07:20:03;94272.03;;;1.27;100.00
50093;BME280;35974;47.752;10.290;2023-11-22T07:22:35;94277.72;;;1.21;100.00
50093;BME280;35974;47.752;10.290;2023-11-22T07:25:01;94282.34;;;1.07;100.00
50093;BME280;35974;47.752;10.290;2023-11-22T07:27:28;94296.97;;;0.97;100.00
50093;BME280;35974;47.752;10.290;2023-11-22T07:29:55;94309.06;;;0.97;100.00
50093;BME280;35974;47.752;10.290;2023-11-22T07:32:22;94301.31;;;0.87;100.00
50093;BME280;35974;47.752;10.290;2023-11-22T07:34:49;94297.81;;;0.98;100.00
50093;BME280;35974;47.752;10.290;2023-11-22T07:37:15;94305.13;;;1.02;100.00
50093;BME280;35974;47.752;10.290;2023-11-22T07:39:43;94316.00;;;1.16;100.00
50093;BME280;35974;47.752;10.290;2023-11-22T07:42:10;94314.34;;;1.15;100.00
50093;BME280;35974;47.752;10.290;2023-11-22T07:44:36;94318.97;;;1.21;100.00
50093;BME280;35974;47.752;10.290;2023-11-22T07:47:04;94317.59;;;1.36;100.00
50093;BME280;35974;47.752;10.290;2023-11-22T07:49:35;94325.47;;;1.35;100.00
50093;BME280;35974;47.752;10.290;2023-11-22T07:52:05;94336.88;;;1.42;100.00
50093;BME280;35974;47.752;10.290;2023-11-22T07:54:32;94334.44;;;1.40;100.00
50093;BME280;35974;47.752;10.290;2023-11-22T07:56:58;94335.50;;;1.48;100.00
50093;BME280;35974;47.752;10.290;2023-11-22T07:59:24;94343.13;;;1.39;100.00
50093;BME280;35974;47.752;10.290;2023-11-22T08:01:52;94337.16;;;1.49;100.00
50093;BME280;35974;47.752;10.290;2023-11-22T08:04:20;94354.81;;;1.43;100.00
50093;BME280;35974;47.752;10.290;2023-11-22T08:06:46;94357.38;;;1.53;100.00
50093;BME280;35974;47.752;10.290;2023-11-22T08:09:14;94352.09;;;1.55;100.00
50093;BME280;35974;47.752;10.290;2023-11-22T08:11:42;94352.09;;;1.55;100.00
50093;BME280;35974;47.752;10.290;2023-11-22T08:14:09;94348.81;;;1.53;100.00
50093;BME280;35974;47.752;10.290;2023-11-22T08:16:35;94345.81;;;1.67;100.00
50093;BME280;35974;47.752;10.290;2023-11-22T08:19:05;94361.03;;;1.51;100.00
50093;BME280;35974;47.752;10.290;2023-11-22T08:21:31;94366.06;;;1.42;100.00
50093;BME280;35974;47.752;10.290;2023-11-22T08:23:58;94368.09;;;1.49;100.00
50093;BME280;35974;47.752;10.290;2023-11-22T08:26:26;94372.97;;;1.13;100.00
50093;BME280;35974;47.752;10.290;2023-11-22T08:28:53;94381.63;;;1.12;100.00
50093;BME280;35974;47.752;10.290;2023-11-22T08:31:19;94377.34;;;1.41;100.00
50093;BME280;35974;47.752;10.290;2023-11-22T08:33:46;94380.31;;;1.37;100.00
50093;BME280;35974;47.752;10.290;2023-11-22T08:36:13;94367.56;;;1.45;100.00
50093;BME280;35974;47.752;10.290;2023-11-22T08:38:39;94374.06;;;1.59;100.00
50093;BME280;35974;47.752;10.290;2023-11-22T08:41:07;94368.09;;;1.68;100.00
50093;BME280;35974;47.752;10.290;2023-11-22T08:43:37;94379.22;;;1.59;100.00
50093;BME280;35974;47.752;10.290;2023-11-22T08:46:04;94389.81;;;1.65;100.00
50093;BME280;35974;47.752;10.290;2023-11-22T08:48:40;94391.72;;;1.63;100.00
50093;BME280;35974;47.752;10.290;2023-11-22T08:51:08;94397.97;;;1.71;100.00
50093;BME280;35974;47.752;10.290;2023-11-22T08:53:36;94399.31;;;1.85;100.00
50093;BME280;35974;47.752;10.290;2023-11-22T08:56:03;94408.28;;;1.61;100.00
50093;BME280;35974;47.752;10.290;2023-11-22T08:58:32;94402.56;;;1.48;100.00
50093;BME280;35974;47.752;10.290;2023-11-22T09:01:00;94413.44;;;1.80;100.00
50093;BME280;35974;47.752;10.290;2023-11-22T09:03:29;94411.13;;;1.77;100.00
50093;BME280;35974;47.752;10.290;2023-11-22T09:05:56;94422.00;;;1.71;100.00
50093;BME280;35974;47.752;10.290;2023-11-22T09:08:24;94425.66;;;1.59;100.00
50093;BME280;35974;47.752;10.290;2023-11-22T09:10:55;94427.53;;;1.47;100.00
50093;BME280;35974;47.752;10.290;2023-11-22T09:13:21;94424.94;;;1.27;100.00
50093;BME280;35974;47.752;10.290;2023-11-22T09:15:49;94424.81;;;1.29;100.00
50093;BME280;35974;47.752;10.290;2023-11-22T09:18:16;94422.75;;;1.23;100.00
50093;BME280;35974;47.752;10.290;2023-11-22T09:20:42;94435.09;;;1.09;100.00
50093;BME280;35974;47.752;10.290;2023-11-22T09:23:13;94431.28;;;1.14;100.00
50093;BME280;35974;47.752;10.290;2023-11-22T09:25:42;94441.44;;;1.05;100.00
50093;BME280;35974;47.752;10.290;2023-11-22T09:28:09;94433.19;;;1.12;100.00
50093;BME280;35974;47.752;10.290;2023-11-22T09:30:36;94442.16;;;1.07;100.00
50093;BME280;35974;47.752;10.290;2023-11-22T09:33:06;94442.91;;;0.98;100.00
50093;BME280;35974;47.752;10.290;2023-11-22T09:35:34;94434.31;;;1.19;100.00
50093;BME280;35974;47.752;10.290;2023-11-22T09:38:02;94451.59;;;0.97;100.00
50093;BME280;35974;47.752;10.290;2023-11-22T09:40:30;94454.88;;;0.99;100.00
50093;BME280;35974;47.752;10.290;2023-11-22T09:42:58;94461.06;;;0.87;100.00
50093;BME280;35974;47.752;10.290;2023-11-22T09:45:28;94451.31;;;1.00;100.00
50093;BME280;35974;47.752;10.290;2023-11-22T09:47:56;94452.59;;;0.75;100.00
50093;BME280;35974;47.752;10.290;2023-11-22T09:50:25;94456.16;;;0.84;100.00
50093;BME280;35974;47.752;10.290;2023-11-22T09:52:54;94457.91;;;1.14;100.00
50093;BME280;35974;47.752;10.290;2023-11-22T09:55:21;94457.34;;;1.11;100.00
50093;BME280;35974;47.752;10.290;2023-11-22T09:57:53;94455.38;;;0.93;100.00
50093;BME280;35974;47.752;10.290;2023-11-22T10:00:21;94451.28;;;0.90;100.00
50093;BME280;35974;47.752;10.290;2023-11-22T10:02:50;94455.22;;;0.85;100.00
50093;BME280;35974;47.752;10.290;2023-11-22T10:05:17;94456.13;;;0.74;100.00
50093;BME280;35974;47.752;10.290;2023-11-22T10:07:43;94450.41;;;0.70;100.00
50093;BME280;35974;47.752;10.290;2023-11-22T10:10:14;94459.34;;;0.66;100.00
50093;BME280;35974;47.752;10.290;2023-11-22T10:12:44;94444.69;;;0.57;100.00
50093;BME280;35974;47.752;10.290;2023-11-22T10:15:11;94451.44;;;0.58;100.00
50093;BME280;35974;47.752;10.290;2023-11-22T10:17:38;94446.63;;;0.75;100.00
50093;BME280;35974;47.752;10.290;2023-11-22T10:20:05;94449.56;;;0.60;100.00
50093;BME280;35974;47.752;10.290;2023-11-22T10:22:43;94450.94;;;0.64;100.00
50093;BME280;35974;47.752;10.290;2023-11-22T10:25:11;94439.84;;;0.73;100.00
50093;BME280;35974;47.752;10.290;2023-11-22T10:27:39;94437.19;;;0.85;100.00
50093;BME280;35974;47.752;10.290;2023-11-22T10:30:07;94433.91;;;0.83;100.00
50093;BME280;35974;47.752;10.290;2023-11-22T10:32:39;94437.75;;;0.88;100.00
50093;BME280;35974;47.752;10.290;2023-11-22T10:35:05;94435.47;;;0.64;100.00
50093;BME280;35974;47.752;10.290;2023-11-22T10:37:32;94442.09;;;0.57;100.00
50093;BME280;35974;47.752;10.290;2023-11-22T10:39:59;94438.22;;;0.72;100.00
50093;BME280;35974;47.752;10.290;2023-11-22T10:42:26;94429.66;;;0.62;100.00
50093;BME280;35974;47.752;10.290;2023-11-22T10:44:57;94442.28;;;0.65;100.00
50093;BME280;35974;47.752;10.290;2023-11-22T10:47:26;94441.13;;;0.58;100.00
50093;BME280;35974;47.752;10.290;2023-11-22T10:49:53;94450.38;;;0.61;100.00
50093;BME280;35974;47.752;10.290;2023-11-22T10:52:19;94447.69;;;0.62;100.00
50093;BME280;35974;47.752;10.290;2023-11-22T10:54:49;94450.59;;;0.48;100.00
50093;BME280;35974;47.752;10.290;2023-11-22T10:57:18;94460.63;;;0.51;100.00
50093;BME280;35974;47.752;10.290;2023-11-22T10:59:50;94460.06;;;0.47;100.00
50093;BME280;35974;47.752;10.290;2023-11-22T11:02:21;94453.97;;;0.27;100.00
50093;BME280;35974;47.752;10.290;2023-11-22T11:04:59;94453.22;;;0.36;100.00
50093;BME280;35974;47.752;10.290;2023-11-22T11:07:26;94446.38;;;0.47;100.00
50093;BME280;35974;47.752;10.290;2023-11-22T11:09:54;94449.81;;;0.57;100.00
50093;BME280;35974;47.752;10.290;2023-11-22T11:12:29;94457.97;;;0.62;100.00
50093;BME280;35974;47.752;10.290;2023-11-22T11:14:56;94458.56;;;0.76;100.00
50093;BME280;35974;47.752;10.290;2023-11-22T11:17:22;94466.72;;;0.81;100.00
50093;BME280;35974;47.752;10.290;2023-11-22T11:19:51;94474.03;;;0.76;100.00
50093;BME280;35974;47.752;10.290;2023-11-22T11:22:17;94474.63;;;0.89;100.00
50093;BME280;35974;47.752;10.290;2023-11-22T11:24:47;94483.53;;;0.75;100.00
50093;BME280;35974;47.752;10.290;2023-11-22T11:27:15;94482.13;;;0.71;100.00
50093;BME280;35974;47.752;10.290;2023-11-22T11:29:41;94477.09;;;0.39;100.00
50093;BME280;35974;47.752;10.290;2023-11-22T11:32:10;94480.09;;;0.44;100.00
50093;BME280;35974;47.752;10.290;2023-11-22T11:34:49;94479.84;;;0.47;100.00
50093;BME280;35974;47.752;10.290;2023-11-22T11:37:19;94479.25;;;0.64;100.00
50093;BME280;35974;47.752;10.290;2023-11-22T11:39:46;94477.38;;;0.66;100.00
50093;BME280;35974;47.752;10.290;2023-11-22T11:42:12;94477.38;;;0.66;100.00
50093;BME280;35974;47.752;10.290;2023-11-22T11:47:26;94480.72;;;0.57;100.00
50093;BME280;35974;47.752;10.290;2023-11-22T11:49:52;94472.03;;;0.58;100.00
50093;BME280;35974;47.752;10.290;2023-11-22T11:52:18;94474.44;;;0.50;100.00
50093;BME280;35974;47.752;10.290;2023-11-22T11:54:45;94474.69;;;0.47;100.00
50093;BME280;35974;47.752;10.290;2023-11-22T11:57:11;94466.38;;;0.64;100.00
50093;BME280;35974;47.752;10.290;2023-11-22T11:59:38;94455.22;;;0.54;100.00
50093;BME280;35974;47.752;10.290;2023-11-22T12:02:08;94466.09;;;0.58;100.00
50093;BME280;35974;47.752;10.290;2023-11-22T12:04:34;94463.22;;;0.82;100.00
50093;BME280;35974;47.752;10.290;2023-11-22T12:07:01;94468.31;;;0.72;100.00
50093;BME280;35974;47.752;10.290;2023-11-22T12:09:27;94468.84;;;0.45;100.00
50093;BME280;35974;47.752;10.290;2023-11-22T12:11:56;94463.34;;;0.49;100.00
50093;BME280;35974;47.752;10.290;2023-11-22T12:14:25;94473.06;;;0.46;100.00
50093;BME280;35974;47.752;10.290;2023-11-22T12:16:52;94473.69;;;0.59;100.00
50093;BME280;35974;47.752;10.290;2023-11-22T12:19:21;94472.63;;;0.71;100.00
50093;BME280;35974;47.752;10.290;2023-11-22T12:21:48;94479.75;;;0.58;100.00
50093;BME280;35974;47.752;10.290;2023-11-22T12:24:16;94484.75;;;0.50;100.00
50093;BME280;35974;47.752;10.290;2023-11-22T12:26:46;94485.63;;;0.60;100.00
50093;BME280;35974;47.752;10.290;2023-11-22T12:29:13;94483.88;;;0.40;100.00
50093;BME280;35974;47.752;10.290;2023-11-22T12:31:48;94489.03;;;0.40;100.00
50093;BME280;35974;47.752;10.290;2023-11-22T12:34:17;94485.00;;;0.47;100.00
50093;BME280;35974;47.752;10.290;2023-11-22T12:36:45;94489.28;;;0.36;100.00
50093;BME280;35974;47.752;10.290;2023-11-22T12:39:13;94485.50;;;0.41;100.00
50093;BME280;35974;47.752;10.290;2023-11-22T12:41:49;94489.53;;;0.33;100.00
50093;BME280;35974;47.752;10.290;2023-11-22T12:44:31;94489.88;;;0.50;100.00
50093;BME280;35974;47.752;10.290;2023-11-22T12:49:44;94487.59;;;0.78;100.00
50093;BME280;35974;47.752;10.290;2023-11-22T12:52:13;94495.22;;;0.89;100.00
50093;BME280;35974;47.752;10.290;2023-11-22T12:54:40;94496.63;;;0.93;100.00
50093;BME280;35974;47.752;10.290;2023-11-22T12:57:17;94496.69;;;0.82;100.00
50093;BME280;35974;47.752;10.290;2023-11-22T12:59:53;94502.28;;;0.87;100.00
50093;BME280;35974;47.752;10.290;2023-11-22T13:02:20;94502.03;;;0.90;100.00